createdAt,value
2022-08-23T00:01:23.982Z,72.41
2022-08-23T00:03:53.390Z,72.33
2022-08-23T00:06:22.704Z,72.33
2022-08-23T00:08:52.057Z,72.40
2022-08-23T00:11:28.884Z,72.13
2022-08-23T00:13:56.526Z,72.78
2022-08-23T00:16:23.858Z,72.41
2022-08-23T00:18:50.879Z,72.31
2022-08-23T00:21:18.009Z,72.66
2022-08-23T00:23:44.892Z,72.69
2022-08-23T00:26:11.873Z,73.26
2022-08-23T00:28:39.016Z,72.44
2022-08-23T00:31:06.078Z,73.19
2022-08-23T00:33:33.076Z,72.80
2022-08-23T00:36:00.119Z,72.74
2022-08-23T00:38:34.235Z,73.13
2022-08-23T00:41:02.937Z,73.35
2022-08-23T00:43:54.384Z,72.69
2022-08-23T00:47:02.117Z,72.93
2022-08-23T00:49:31.828Z,73.08
2022-08-23T00:52:09.309Z,72.74
2022-08-23T00:54:39.454Z,73.25
2022-08-23T00:57:12.043Z,73.29
2022-08-23T00:59:39.441Z,73.68
2022-08-23T01:02:07.580Z,73.29
2022-08-23T01:04:40.159Z,73.01
2022-08-23T01:07:20.755Z,73.00
2022-08-23T01:09:51.273Z,73.76
2022-08-23T01:12:33.352Z,73.34
2022-08-23T01:15:07.400Z,73.13
2022-08-23T01:18:06.468Z,73.30
2022-08-23T01:20:52.080Z,73.80
2022-08-23T01:23:37.042Z,73.98
2022-08-23T01:26:05.944Z,74.39
2022-08-23T01:28:33.697Z,74.28
2022-08-23T01:31:01.569Z,73.61
2022-08-23T01:33:29.648Z,74.31
2022-08-23T01:35:58.544Z,74.70
2022-08-23T01:38:32.720Z,74.09
2022-08-23T01:41:00.496Z,73.94
2022-08-23T01:43:27.592Z,74.07
2022-08-23T01:45:55.874Z,74.15
2022-08-23T01:48:25.634Z,74.33
2022-08-23T01:50:52.787Z,74.30
2022-08-23T01:53:20.067Z,74.69
2022-08-23T01:55:49.899Z,74.81
2022-08-23T01:58:19.334Z,74.49
2022-08-23T02:00:46.401Z,74.92
2022-08-23T02:03:14.268Z,74.27
2022-08-23T02:05:42.719Z,74.53
2022-08-23T02:08:30.365Z,73.98
2022-08-23T02:10:59.452Z,74.72
2022-08-23T02:13:27.153Z,74.80
2022-08-23T02:15:55.245Z,74.48
2022-08-23T02:18:23.733Z,74.09
2022-08-23T02:20:52.919Z,74.48
2022-08-23T02:23:20.972Z,74.52
2022-08-23T02:25:48.652Z,74.19
2022-08-23T02:28:15.943Z,75.10
2022-08-23T02:30:45.340Z,74.19
2022-08-23T02:33:14.233Z,73.96
2022-08-23T02:35:43.589Z,74.12
2022-08-23T02:38:13.205Z,74.87
2022-08-23T02:40:42.348Z,74.84
2022-08-23T02:43:10.484Z,74.80
2022-08-23T02:45:38.976Z,74.66
2022-08-23T02:48:08.206Z,74.47
2022-08-23T02:50:43.774Z,74.12
2022-08-23T02:53:10.913Z,74.89
2022-08-23T02:55:38.572Z,74.67
2022-08-23T02:58:05.870Z,75.00
2022-08-23T03:00:32.971Z,74.72
2022-08-23T03:03:00.201Z,74.44
2022-08-23T03:05:27.353Z,74.46
2022-08-23T03:07:54.606Z,74.35
2022-08-23T03:10:21.749Z,74.63
2022-08-23T03:12:54.849Z,75.09
2022-08-23T03:15:21.875Z,74.71
2022-08-23T03:17:49.309Z,75.44
2022-08-23T03:20:17.063Z,75.77
2022-08-23T03:22:48.357Z,74.58
2022-08-23T03:25:22.421Z,75.02
2022-08-23T03:28:16.570Z,75.45
2022-08-23T03:30:45.006Z,75.17
2022-08-23T03:33:13.174Z,75.09
2022-08-23T03:35:41.172Z,75.53
2022-08-23T03:38:30.729Z,75.53
2022-08-23T03:41:18.694Z,75.15
2022-08-23T03:44:05.697Z,75.49
2022-08-23T03:46:56.094Z,75.02
2022-08-23T03:49:43.256Z,75.69
2022-08-23T03:52:11.388Z,75.04
2022-08-23T03:54:38.931Z,75.56
2022-08-23T03:57:09.552Z,75.51
2022-08-23T03:59:40.116Z,75.42
2022-08-23T04:02:10.137Z,75.40
2022-08-23T04:04:37.277Z,75.31
2022-08-23T04:07:28.397Z,75.35
2022-08-23T04:09:58.068Z,75.34
2022-08-23T04:12:28.708Z,75.96
2022-08-23T04:14:55.714Z,75.96
2022-08-23T04:17:24.098Z,75.44
2022-08-23T04:19:52.615Z,75.01
2022-08-23T04:22:20.576Z,75.30
2022-08-23T04:24:48.208Z,75.27
2022-08-23T04:27:16.806Z,75.40
2022-08-23T04:29:45.214Z,75.88
2022-08-23T04:32:12.512Z,76.13
2022-08-23T04:34:45.571Z,75.34
2022-08-23T04:37:18.793Z,76.47
2022-08-23T04:40:04.316Z,76.55
2022-08-23T04:42:40.975Z,75.39
2022-08-23T04:45:08.388Z,76.06
2022-08-23T04:47:40.373Z,75.92
2022-08-23T04:50:09.528Z,76.60
2022-08-23T04:52:48.093Z,75.88
2022-08-23T04:55:15.953Z,76.53
2022-08-23T04:57:52.317Z,75.90
2022-08-23T05:00:23.464Z,75.70
2022-08-23T05:02:57.680Z,76.42
2022-08-23T05:05:27.833Z,76.39
2022-08-23T05:07:55.624Z,76.01
2022-08-23T05:10:23.046Z,75.82
2022-08-23T05:12:53.127Z,75.90
2022-08-23T05:15:21.735Z,76.20
2022-08-23T05:17:56.221Z,75.80
2022-08-23T05:20:24.153Z,76.84
2022-08-23T05:22:51.432Z,76.69
2022-08-23T05:25:49.536Z,76.68
2022-08-23T05:28:29.661Z,76.56
2022-08-23T05:30:59.733Z,76.60
2022-08-23T05:33:32.242Z,76.43
2022-08-23T05:36:00.122Z,76.29
2022-08-23T05:38:28.131Z,76.54
2022-08-23T05:40:59.923Z,75.91
2022-08-23T05:43:27.190Z,76.61
2022-08-23T05:46:28.401Z,75.33
2022-08-23T05:49:21.814Z,75.32
2022-08-23T05:51:51.673Z,76.03
2022-08-23T05:54:20.579Z,74.83
2022-08-23T05:56:59.958Z,74.64
2022-08-23T05:59:26.929Z,74.41
2022-08-23T06:02:14.354Z,73.85
2022-08-23T06:05:01.347Z,74.25
2022-08-23T06:07:48.344Z,73.71
2022-08-23T06:10:41.709Z,73.75
2022-08-23T06:13:46.162Z,73.86
2022-08-23T06:16:36.144Z,73.96
2022-08-23T06:19:25.024Z,73.84
2022-08-23T06:22:18.042Z,73.27
2022-08-23T06:25:09.109Z,73.35
2022-08-23T06:28:18.248Z,73.17
2022-08-23T06:31:06.567Z,72.19
2022-08-23T06:33:56.055Z,72.15
2022-08-23T06:37:01.753Z,72.07
2022-08-23T06:40:12.107Z,71.84
2022-08-23T06:43:14.792Z,71.27
2022-08-23T06:46:35.294Z,71.17
2022-08-23T06:49:22.531Z,70.42
2022-08-23T06:52:12.164Z,70.12
2022-08-23T06:55:37.558Z,70.00
2022-08-23T06:58:46.783Z,69.48
2022-08-23T07:01:58.496Z,69.12
2022-08-23T07:05:01.245Z,68.77
2022-08-23T07:08:11.892Z,68.55
2022-08-23T07:10:59.484Z,68.12
2022-08-23T07:13:46.582Z,68.05
2022-08-23T07:16:34.293Z,67.70
2022-08-23T07:19:22.288Z,67.21
2022-08-23T07:22:17.469Z,66.83
2022-08-23T07:25:04.536Z,66.53
2022-08-23T07:27:53.022Z,66.22
2022-08-23T07:30:44.942Z,66.21
2022-08-23T07:33:32.946Z,65.56
2022-08-23T07:36:29.520Z,64.96
2022-08-23T07:39:17.412Z,64.60
2022-08-23T07:42:15.945Z,63.75
2022-08-23T07:45:13.197Z,62.88
2022-08-23T07:48:01.255Z,61.60
2022-08-23T07:50:56.681Z,60.97
2022-08-23T07:53:48.340Z,60.08
2022-08-23T07:56:39.064Z,60.33
2022-08-23T07:59:34.449Z,59.97
2022-08-23T08:02:53.755Z,60.04
2022-08-23T08:05:47.809Z,59.71
2022-08-23T08:08:35.521Z,59.28
2022-08-23T08:11:22.736Z,58.85
2022-08-23T08:14:11.577Z,59.22
2022-08-23T08:17:08.257Z,58.78
2022-08-23T08:20:15.644Z,59.58
2022-08-23T08:23:28.907Z,59.36
2022-08-23T08:26:32.053Z,60.26
2022-08-23T08:29:19.738Z,60.65
2022-08-23T08:32:06.830Z,60.92
2022-08-23T08:34:58.664Z,60.92
2022-08-23T08:37:45.621Z,61.35
2022-08-23T08:40:45.438Z,60.40
2022-08-23T08:43:50.624Z,60.77
2022-08-23T08:46:53.599Z,61.26
2022-08-23T08:50:00.118Z,60.79
2022-08-23T08:52:50.957Z,61.01
2022-08-23T08:55:58.795Z,60.72
2022-08-23T08:59:01.976Z,60.69
2022-08-23T09:01:52.634Z,60.73
2022-08-23T09:04:48.216Z,61.30
2022-08-23T09:07:53.682Z,61.55
2022-08-23T09:10:40.975Z,61.19
2022-08-23T09:13:46.355Z,60.91
2022-08-23T09:16:50.022Z,61.29
2022-08-23T09:19:39.233Z,61.88
2022-08-23T09:22:32.649Z,62.47
2022-08-23T09:25:20.020Z,62.48
2022-08-23T09:28:16.692Z,62.16
2022-08-23T09:31:17.441Z,62.91
2022-08-23T09:34:08.560Z,63.05
2022-08-23T09:37:05.612Z,63.12
2022-08-23T09:39:54.899Z,62.90
2022-08-23T09:42:54.729Z,62.68
2022-08-23T09:45:53.049Z,62.48
2022-08-23T09:48:55.969Z,62.19
2022-08-23T09:51:54.913Z,61.74
2022-08-23T09:54:47.495Z,60.91
2022-08-23T09:57:45.154Z,60.64
2022-08-23T10:00:49.583Z,60.44
2022-08-23T10:03:48.866Z,60.19
2022-08-23T10:06:52.537Z,59.82
2022-08-23T10:09:52.881Z,59.85
2022-08-23T10:12:41.085Z,59.37
2022-08-23T10:15:32.995Z,59.48
2022-08-23T10:18:31.054Z,59.25
2022-08-23T10:21:39.349Z,58.97
2022-08-23T10:24:32.462Z,58.84
2022-08-23T10:27:24.085Z,57.73
2022-08-23T10:30:21.025Z,56.97
2022-08-23T10:33:18.601Z,57.20
2022-08-23T10:36:26.561Z,56.66
2022-08-23T10:39:18.093Z,55.98
2022-08-23T10:42:24.600Z,56.04
2022-08-23T10:45:23.545Z,55.74
2022-08-23T10:48:49.062Z,55.95
2022-08-23T10:51:42.136Z,55.09
2022-08-23T10:54:52.129Z,53.92
2022-08-23T10:57:53.640Z,54.36
2022-08-23T11:00:46.017Z,52.94
2022-08-23T11:03:47.803Z,52.77
2022-08-23T11:07:00.740Z,51.60
2022-08-23T11:09:55.137Z,51.34
2022-08-23T11:12:50.608Z,50.88
2022-08-23T11:16:22.801Z,50.35
2022-08-23T11:19:11.101Z,49.53
2022-08-23T11:22:03.617Z,50.12
2022-08-23T11:24:53.180Z,50.05
2022-08-23T11:27:51.751Z,49.83
2022-08-23T11:30:36.778Z,49.94
2022-08-23T11:33:39.331Z,49.92
2022-08-23T11:36:29.229Z,49.40
2022-08-23T11:39:24.558Z,48.61
2022-08-23T11:42:16.238Z,48.72
2022-08-23T11:45:08.362Z,49.15
2022-08-23T11:48:03.949Z,49.13
2022-08-23T11:51:18.348Z,49.29
2022-08-23T11:54:14.472Z,48.29
2022-08-23T11:57:15.826Z,49.19
2022-08-23T12:00:37.206Z,48.61
2022-08-23T12:03:41.880Z,48.30
2022-08-23T12:06:53.071Z,49.00
2022-08-23T12:09:39.987Z,48.03
2022-08-23T12:12:50.393Z,48.99
2022-08-23T12:15:37.566Z,47.99
2022-08-23T12:18:32.992Z,47.96
2022-08-23T12:21:23.147Z,47.75
2022-08-23T12:24:32.330Z,47.73
2022-08-23T12:27:38.258Z,47.06
2022-08-23T12:30:44.247Z,47.73
2022-08-23T12:33:53.280Z,47.42
2022-08-23T12:37:08.858Z,48.65
2022-08-23T12:40:00.049Z,47.41
2022-08-23T12:42:49.600Z,47.11
2022-08-23T12:45:42.173Z,46.94
2022-08-23T12:48:32.256Z,46.58
2022-08-23T12:51:22.620Z,46.69
2022-08-23T12:54:09.620Z,46.32
2022-08-23T12:56:56.813Z,45.69
2022-08-23T13:00:16.706Z,45.56
2022-08-23T13:03:12.652Z,46.29
2022-08-23T13:06:15.542Z,46.40
2022-08-23T13:09:11.713Z,46.46
2022-08-23T13:12:00.325Z,46.50
2022-08-23T13:14:54.083Z,45.74
2022-08-23T13:17:46.940Z,45.79
2022-08-23T13:20:42.273Z,45.94
2022-08-23T13:23:29.273Z,46.33
2022-08-23T13:26:16.750Z,46.65
2022-08-23T13:29:21.972Z,46.62
2022-08-23T13:32:21.263Z,47.88
2022-08-23T13:35:08.285Z,48.43
2022-08-23T13:37:55.454Z,48.60
2022-08-23T13:40:47.160Z,48.00
2022-08-23T13:43:41.150Z,47.55
2022-08-23T13:46:39.638Z,47.34
2022-08-23T13:49:38.168Z,47.87
2022-08-23T13:55:36.270Z,48.58
2022-08-23T13:58:10.566Z,48.54
2022-08-23T14:00:58.869Z,48.36
2022-08-23T14:03:49.186Z,49.28
2022-08-23T14:06:16.470Z,49.09
2022-08-23T14:08:43.570Z,49.07
2022-08-23T14:11:15.032Z,49.12
2022-08-23T14:13:47.933Z,48.98
2022-08-23T14:16:34.640Z,48.81
2022-08-23T14:20:31.365Z,48.98
2022-08-23T14:21:51.396Z,48.36
2022-08-23T14:24:20.901Z,48.70
2022-08-23T14:26:51.762Z,48.93
2022-08-23T14:29:22.619Z,48.45
2022-08-23T14:31:52.114Z,49.48
2022-08-23T14:34:40.411Z,49.51
2022-08-23T14:40:15.729Z,50.63
2022-08-23T14:43:04.607Z,50.76
2022-08-23T14:45:51.898Z,51.31
2022-08-23T14:48:39.417Z,50.99
2022-08-23T14:51:26.645Z,50.49
2022-08-23T14:54:14.846Z,50.68
2022-08-23T14:56:41.942Z,51.50
2022-08-23T14:59:08.896Z,51.71
2022-08-23T15:01:37.310Z,51.80
2022-08-23T15:04:05.183Z,52.14
2022-08-23T15:06:32.300Z,51.82
2022-08-23T15:08:59.416Z,51.95
2022-08-23T15:14:14.027Z,52.58
2022-08-23T15:16:41.547Z,52.56
2022-08-23T15:19:08.608Z,52.24
2022-08-23T15:21:35.584Z,52.10
2022-08-23T15:24:02.848Z,51.96
2022-08-23T15:26:31.417Z,51.89
2022-08-23T15:28:59.711Z,52.43
2022-08-23T15:31:27.364Z,52.56
2022-08-23T15:33:54.537Z,52.34
2022-08-23T15:36:21.719Z,52.57
2022-08-23T15:38:50.567Z,52.36
2022-08-23T15:41:19.128Z,52.57
2022-08-23T15:43:46.484Z,53.22
2022-08-23T15:46:21.656Z,53.54
2022-08-23T15:48:54.780Z,53.43
2022-08-23T15:51:21.812Z,52.99
2022-08-23T15:53:48.913Z,52.65
2022-08-23T15:56:21.161Z,52.90
2022-08-23T15:58:48.704Z,52.66
2022-08-23T16:01:19.832Z,52.90
2022-08-23T16:03:50.026Z,53.02
2022-08-23T16:06:17.893Z,52.86
2022-08-23T16:08:49.944Z,53.25
2022-08-23T16:11:17.037Z,53.98
2022-08-23T16:13:45.528Z,54.63
2022-08-23T16:16:32.225Z,54.44
2022-08-23T16:19:00.129Z,55.02
2022-08-23T16:21:29.987Z,55.16
2022-08-23T16:23:58.010Z,55.18
2022-08-23T16:26:34.805Z,55.41
2022-08-23T16:29:05.808Z,55.38
2022-08-23T16:31:39.086Z,55.57
2022-08-23T16:34:09.493Z,55.70
2022-08-23T16:36:37.053Z,55.58
2022-08-23T16:39:05.597Z,55.83
2022-08-23T16:41:32.832Z,55.63
2022-08-23T16:44:00.015Z,55.99
2022-08-23T16:46:29.246Z,55.82
2022-08-23T16:48:56.400Z,56.36
2022-08-23T16:51:23.452Z,56.35
2022-08-23T16:54:01.777Z,56.58
2022-08-23T16:56:34.261Z,57.10
2022-08-23T16:59:03.196Z,57.89
2022-08-23T17:01:42.350Z,57.82
2022-08-23T17:04:10.065Z,58.58
2022-08-23T17:06:37.033Z,58.73
2022-08-23T17:09:04.234Z,58.99
2022-08-23T17:11:32.973Z,59.38
2022-08-23T17:14:04.817Z,59.39
2022-08-23T17:16:33.226Z,60.10
2022-08-23T17:19:00.513Z,60.39
2022-08-23T17:21:27.508Z,60.18
2022-08-23T17:23:54.924Z,60.69
2022-08-23T17:26:22.312Z,61.25
2022-08-23T17:28:49.300Z,61.34
2022-08-23T17:31:17.901Z,61.88
2022-08-23T17:33:46.377Z,62.37
2022-08-23T17:36:43.094Z,62.82
2022-08-23T17:39:17.773Z,63.01
2022-08-23T17:41:45.656Z,64.52
2022-08-23T17:44:13.845Z,63.70
2022-08-23T17:46:44.462Z,63.93
2022-08-23T17:49:12.562Z,63.95
2022-08-23T17:51:41.202Z,64.21
2022-08-23T17:54:10.094Z,64.17
2022-08-23T17:56:38.197Z,64.72
2022-08-23T17:59:08.648Z,64.81
2022-08-23T18:01:37.193Z,64.62
2022-08-23T18:04:07.415Z,65.57
2022-08-23T18:06:36.541Z,65.06
2022-08-23T18:09:07.859Z,65.29
2022-08-23T18:11:36.345Z,65.40
2022-08-23T18:14:04.240Z,65.97
2022-08-23T18:16:35.681Z,66.23
2022-08-23T18:19:06.079Z,66.39
2022-08-23T18:21:38.588Z,66.52
2022-08-23T18:24:06.697Z,66.54
2022-08-23T18:26:54.073Z,67.02
2022-08-23T18:29:21.846Z,67.29
2022-08-23T18:31:48.921Z,67.44
2022-08-23T18:34:16.665Z,68.07
2022-08-23T18:37:04.409Z,68.06
2022-08-23T18:39:51.513Z,69.10
2022-08-23T18:42:38.612Z,68.57
2022-08-23T18:45:26.615Z,69.37
2022-08-23T18:48:13.707Z,69.55
2022-08-23T18:51:01.640Z,69.76
2022-08-23T18:53:49.534Z,69.98
2022-08-23T18:56:36.732Z,70.64
2022-08-23T18:59:24.476Z,70.52
2022-08-23T19:02:11.782Z,69.94
2022-08-23T19:04:58.753Z,70.81
2022-08-23T19:07:45.879Z,71.26
2022-08-23T19:10:32.858Z,70.46
2022-08-23T19:13:20.443Z,71.06
2022-08-23T19:16:07.420Z,70.90
2022-08-23T19:18:54.359Z,71.01
2022-08-23T19:21:44.590Z,71.03
2022-08-23T19:24:31.621Z,70.91
2022-08-23T19:27:18.644Z,71.75
2022-08-23T19:30:05.837Z,72.08
2022-08-23T19:32:53.657Z,71.70
2022-08-23T19:35:40.619Z,71.68
2022-08-23T19:38:27.478Z,72.63
2022-08-23T19:41:15.528Z,72.72
2022-08-23T19:44:02.693Z,72.36
2022-08-23T19:46:49.716Z,72.45
2022-08-23T19:49:37.206Z,72.72
2022-08-23T19:52:25.081Z,72.66
2022-08-23T19:55:12.040Z,73.01
2022-08-23T19:57:59.160Z,73.59
2022-08-23T20:00:47.067Z,73.31
2022-08-23T20:03:34.100Z,73.65
2022-08-23T20:06:20.944Z,73.64
2022-08-23T20:09:08.036Z,74.09
2022-08-23T20:11:55.263Z,73.66
2022-08-23T20:14:44.228Z,74.05
2022-08-23T20:17:31.704Z,73.54
2022-08-23T20:20:18.819Z,73.74
2022-08-23T20:23:04.440Z,73.92
2022-08-23T20:25:31.671Z,74.47
2022-08-23T20:27:58.777Z,74.67
2022-08-23T20:30:25.773Z,74.86
2022-08-23T20:32:52.799Z,75.04
2022-08-23T20:35:19.700Z,74.65
2022-08-23T20:37:46.611Z,75.25
2022-08-23T20:40:14.870Z,75.30
2022-08-23T20:42:41.992Z,74.89
2022-08-23T20:45:09.379Z,75.16
2022-08-23T20:47:36.749Z,74.96
2022-08-23T20:50:04.128Z,75.47
2022-08-23T20:52:34.505Z,75.41
2022-08-23T20:55:02.317Z,75.09
2022-08-23T20:57:35.812Z,75.59
2022-08-23T21:00:07.840Z,75.27
2022-08-23T21:02:34.890Z,75.32
2022-08-23T21:05:01.808Z,75.25
2022-08-23T21:07:31.941Z,75.07
2022-08-23T21:09:59.026Z,75.76
2022-08-23T21:12:28.123Z,74.90
2022-08-23T21:14:56.812Z,74.90
2022-08-23T21:17:23.829Z,75.86
2022-08-23T21:19:50.942Z,75.77
2022-08-23T21:22:18.132Z,75.68
2022-08-23T21:24:45.141Z,75.57
2022-08-23T21:27:12.696Z,75.82
2022-08-23T21:29:40.457Z,76.11
2022-08-23T21:32:08.011Z,76.14
2022-08-23T21:34:35.008Z,76.32
2022-08-23T21:37:02.068Z,76.57
2022-08-23T21:39:49.071Z,75.84
2022-08-23T21:42:36.057Z,76.65
2022-08-23T21:45:23.741Z,76.10
2022-08-23T21:48:10.724Z,76.14
2022-08-23T21:50:57.577Z,76.44
2022-08-23T21:53:44.604Z,76.14
2022-08-23T21:56:31.476Z,76.28
2022-08-23T21:59:24.162Z,76.32
2022-08-23T22:02:11.103Z,76.22
2022-08-23T22:04:58.508Z,76.37
2022-08-23T22:07:45.348Z,76.50
2022-08-23T22:10:32.577Z,76.15
2022-08-23T22:13:19.469Z,76.78
2022-08-23T22:16:06.787Z,76.60
2022-08-23T22:18:54.788Z,77.07
2022-08-23T22:21:41.843Z,76.56
2022-08-23T22:24:30.677Z,76.82
2022-08-23T22:27:17.910Z,76.96
2022-08-23T22:30:04.911Z,76.62
2022-08-23T22:32:51.809Z,76.89
2022-08-23T22:35:38.844Z,76.82
2022-08-23T22:38:25.925Z,77.12
2022-08-23T22:41:13.184Z,76.97
2022-08-23T22:44:00.406Z,77.05
2022-08-23T22:46:50.404Z,77.19
2022-08-23T22:49:37.860Z,77.24
2022-08-23T22:52:25.017Z,76.92
2022-08-23T22:55:12.340Z,77.37
2022-08-23T22:57:59.278Z,77.62
2022-08-23T23:00:46.371Z,77.21
2022-08-23T23:03:33.234Z,77.67
2022-08-23T23:06:20.830Z,77.98
2022-08-23T23:09:08.740Z,77.67
2022-08-23T23:11:57.069Z,77.77
2022-08-23T23:14:44.182Z,77.78
2022-08-23T23:17:31.417Z,77.72
2022-08-23T23:20:16.776Z,77.95
2022-08-23T23:23:04.582Z,77.79
2022-08-23T23:25:51.773Z,77.74
2022-08-23T23:28:40.601Z,77.60
2022-08-23T23:31:27.763Z,77.68
2022-08-23T23:34:14.724Z,77.42
2022-08-23T23:37:01.821Z,77.62
2022-08-23T23:39:48.893Z,77.15
2022-08-23T23:42:35.829Z,77.79
2022-08-23T23:45:22.873Z,77.14
2022-08-23T23:48:10.197Z,77.38
2022-08-23T23:51:01.385Z,77.28
2022-08-23T23:53:48.263Z,77.47
2022-08-23T23:56:36.981Z,77.49
2022-08-23T23:59:23.926Z,77.66
